Time;durP1;ratioP1;P1;durP2;ratioP2;P2;SDS_P1;SDS_P2;PMS_P1;PMS_P2;Temp;Humidity;BMP_temperature;BMP_pressure;BME280_temperature;BME280_humidity;BME280_pressure;Samples;Min_cycle;Max_cycle;Signal;HPM_P1;HPM_P2
2022/04/08 00:01:40;;;;;;;0.10;0.10;;;5.40;99.90;;;;;;5056763;28;20044;-82
2022/04/08 00:04:08;;;;;;;0.10;0.10;;;5.70;99.90;;;;;;5086090;28;20043;-81
2022/04/08 00:06:34;;;;;;;0.10;0.10;;;5.40;99.90;;;;;;5076606;28;20044;-81
2022/04/08 00:09:02;;;;;;;0.10;0.10;;;5.90;99.90;;;;;;5076056;28;20048;-82
2022/04/08 00:11:28;;;;;;;0.10;0.10;;;5.40;99.90;;;;;;5076775;28;20040;-82
2022/04/08 00:13:55;;;;;;;0.17;0.17;;;5.40;99.90;;;;;;5093010;28;20408;-83
2022/04/08 00:16:22;;;;;;;0.10;0.10;;;5.40;99.90;;;;;;5092866;28;20404;-82
2022/04/08 00:18:49;;;;;;;0.10;0.10;;;5.40;99.90;;;;;;5092983;28;20043;-81
2022/04/08 00:21:16;;;;;;;0.10;0.10;;;5.50;99.90;;;;;;5059671;28;20063;-81
2022/04/08 00:23:43;;;;;;;0.10;0.10;;;5.50;99.90;;;;;;5092882;28;20040;-83
2022/04/08 00:26:10;;;;;;;0.10;0.10;;;5.80;99.90;;;;;;5059437;28;20096;-81
2022/04/08 00:28:37;;;;;;;0.10;0.10;;;5.40;99.90;;;;;;5055005;28;20057;-81
2022/04/08 00:31:04;;;;;;;0.10;0.10;;;5.60;99.90;;;;;;5069005;28;20082;-81
2022/04/08 00:33:32;;;;;;;0.10;0.10;;;5.40;99.90;;;;;;5069157;28;20037;-81
2022/04/08 00:36:00;;;;;;;0.13;0.13;;;5.40;99.90;;;;;;5054479;28;20065;-81
2022/04/08 00:38:27;;;;;;;0.10;0.10;;;5.40;99.90;;;;;;5049304;28;20128;-82
2022/04/08 00:40:56;;;;;;;0.10;0.10;;;5.70;99.90;;;;;;5033157;28;20045;-81
2022/04/08 00:43:35;;;;;;;0.10;0.10;;;5.30;99.90;;;;;;5017832;28;20045;-82
2022/04/08 00:46:04;;;;;;;0.10;0.10;;;5.20;99.90;;;;;;5075383;28;20052;-81
2022/04/08 00:48:31;;;;;;;0.10;0.10;;;5.10;99.90;;;;;;5085820;28;20041;-81
2022/04/08 00:51:00;;;;;;;0.10;0.10;;;5.10;99.90;;;;;;5085214;28;20413;-81
2022/04/08 00:53:28;;;;;;;0.10;0.10;;;5.00;99.90;;;;;;5085345;28;20053;-81
2022/04/08 00:55:55;;;;;;;0.10;0.10;;;5.50;99.90;;;;;;5084248;28;20076;-80
2022/04/08 00:58:26;;;;;;;0.10;0.10;;;4.70;99.90;;;;;;5069061;28;20127;-81
2022/04/08 01:00:53;;;;;;;0.10;0.10;;;4.90;99.90;;;;;;5069219;28;20039;-82
2022/04/08 01:03:19;;;;;;;0.17;0.17;;;4.60;99.90;;;;;;5052444;28;20045;-80
2022/04/08 01:05:47;;;;;;;0.20;0.20;;;4.50;99.90;;;;;;5085460;28;20521;-80
2022/04/08 01:08:17;;;;;;;0.10;0.10;;;4.30;99.90;;;;;;5066399;28;20120;-81
2022/04/08 01:10:44;;;;;;;0.13;0.13;;;4.30;99.90;;;;;;5053209;28;20040;-81
2022/04/08 01:13:11;;;;;;;0.10;0.10;;;4.20;99.90;;;;;;5071291;28;20052;-81
2022/04/08 01:15:38;;;;;;;0.10;0.10;;;5.00;99.90;;;;;;5072866;28;20037;-81
2022/04/08 01:18:05;;;;;;;0.10;0.10;;;4.10;99.90;;;;;;5036147;28;20041;-81
2022/04/08 01:20:33;;;;;;;0.10;0.10;;;4.10;99.90;;;;;;5053148;28;20029;-80
2022/04/08 01:23:00;;;;;;;0.20;0.20;;;4.10;99.90;;;;;;5069253;28;20041;-81
2022/04/08 01:25:27;;;;;;;0.10;0.10;;;4.00;99.90;;;;;;5052504;28;20041;-80
2022/04/08 01:27:55;;;;;;;0.20;0.20;;;4.10;99.90;;;;;;5051627;28;20185;-82
2022/04/08 01:30:22;;;;;;;0.20;0.20;;;4.10;99.90;;;;;;5075597;28;20048;-81
2022/04/08 01:32:48;;;;;;;0.15;0.15;;;4.40;99.90;;;;;;5076437;28;20055;-82
2022/04/08 01:35:15;;;;;;;0.10;0.10;;;4.00;99.90;;;;;;5078793;28;20111;-80
2022/04/08 01:37:42;;;;;;;0.10;0.10;;;4.00;99.90;;;;;;5079481;28;20527;-81
2022/04/08 01:40:09;;;;;;;0.20;0.20;;;4.10;99.90;;;;;;5078429;28;20066;-81
2022/04/08 01:42:36;;;;;;;0.10;0.10;;;4.00;99.90;;;;;;5094974;28;20039;-81
2022/04/08 01:45:03;;;;;;;0.10;0.10;;;4.30;99.90;;;;;;5075356;28;20044;-81
2022/04/08 01:47:30;;;;;;;0.20;0.20;;;4.00;99.90;;;;;;5078776;28;20071;-81
2022/04/08 01:49:57;;;;;;;0.10;0.10;;;3.90;99.90;;;;;;5062688;28;20083;-81
2022/04/08 01:52:25;;;;;;;0.15;0.15;;;4.10;99.90;;;;;;5078748;28;20043;-81
2022/04/08 01:54:51;;;;;;;0.13;0.13;;;3.90;99.90;;;;;;5075382;28;20119;-81
2022/04/08 01:57:22;;;;;;;0.10;0.10;;;3.90;99.90;;;;;;5075738;28;20072;-82
2022/04/08 01:59:49;;;;;;;0.10;0.10;;;4.00;99.90;;;;;;5043747;28;20126;-80
2022/04/08 02:02:17;;;;;;;0.20;0.20;;;3.90;99.90;;;;;;5042558;28;20037;-81
2022/04/08 02:04:43;;;;;;;0.20;0.20;;;4.00;99.90;;;;;;5062795;28;20055;-81
2022/04/08 02:07:10;;;;;;;0.10;0.10;;;3.90;99.90;;;;;;5075013;28;20036;-81
2022/04/08 02:09:37;;;;;;;0.20;0.20;;;3.90;99.90;;;;;;5058906;28;20119;-82
2022/04/08 02:12:04;;;;;;;0.17;0.17;;;3.90;99.90;;;;;;5075520;28;20119;-81
2022/04/08 02:14:31;;;;;;;0.10;0.10;;;3.90;99.90;;;;;;5075014;28;20076;-82
2022/04/08 02:16:57;;;;;;;0.10;0.10;;;4.10;99.90;;;;;;5075369;28;20134;-81
2022/04/08 02:19:24;;;;;;;0.20;0.20;;;3.90;99.90;;;;;;5058510;28;20040;-82
2022/04/08 02:21:51;;;;;;;0.20;0.20;;;4.30;99.90;;;;;;5075302;28;20094;-81
2022/04/08 02:24:21;;;;;;;0.20;0.20;;;3.90;99.90;;;;;;5057274;28;20669;-81
2022/04/08 02:26:47;;;;;;;0.10;0.10;;;4.50;99.90;;;;;;5058945;28;20048;-81
2022/04/08 02:29:14;;;;;;;0.20;0.20;;;4.60;99.90;;;;;;5058084;28;20040;-81
2022/04/08 02:31:41;;;;;;;0.10;0.10;;;3.90;99.90;;;;;;5074831;28;20032;-81
2022/04/08 02:34:08;;;;;;;0.10;0.10;;;3.90;99.90;;;;;;5075398;28;20162;-81
2022/04/08 02:36:34;;;;;;;0.20;0.20;;;3.90;99.90;;;;;;5074847;28;20037;-81
2022/04/08 02:39:04;;;;;;;0.15;0.15;;;3.90;99.90;;;;;;5069648;28;20493;-81
2022/04/08 02:41:31;;;;;;;0.10;0.10;;;4.00;99.90;;;;;;5101185;28;20402;-82
2022/04/08 02:43:57;;;;;;;0.10;0.10;;;3.90;99.90;;;;;;5088393;28;20043;-82
2022/04/08 02:46:24;;;;;;;0.20;0.20;;;3.90;99.90;;;;;;5077533;28;20044;-83
2022/04/08 02:48:51;;;;;;;0.20;0.20;;;4.20;99.90;;;;;;5061318;28;20032;-82
2022/04/08 02:51:17;;;;;;;0.10;0.10;;;3.90;99.90;;;;;;5058159;28;20032;-82
2022/04/08 02:53:44;;;;;;;0.20;0.20;;;4.10;99.90;;;;;;5057892;28;20135;-82
2022/04/08 02:56:11;;;;;;;0.10;0.10;;;3.90;99.90;;;;;;5041694;28;20037;-82
2022/04/08 02:58:37;;;;;;;0.10;0.10;;;3.90;99.90;;;;;;5077675;28;20636;-81
2022/04/08 03:01:04;;;;;;;0.20;0.20;;;4.20;99.90;;;;;;5094293;28;20106;-82
2022/04/08 03:03:31;;;;;;;0.10;0.10;;;4.00;99.90;;;;;;5110519;28;20047;-82
2022/04/08 03:05:58;;;;;;;0.10;0.10;;;4.00;99.90;;;;;;5094061;28;20044;-82
2022/04/08 03:08:25;;;;;;;0.10;0.10;;;4.00;99.90;;;;;;5057213;28;20048;-82
2022/04/08 03:10:52;;;;;;;0.10;0.10;;;3.90;99.90;;;;;;5041165;28;20048;-82
2022/04/08 03:13:19;;;;;;;0.10;0.10;;;3.90;99.90;;;;;;5073823;28;20528;-82
2022/04/08 03:15:45;;;;;;;0.10;0.10;;;3.90;99.90;;;;;;5057307;28;20124;-82
2022/04/08 03:18:12;;;;;;;0.15;0.15;;;4.00;99.90;;;;;;5065140;28;20052;-81
2022/04/08 03:20:39;;;;;;;0.20;0.20;;;3.80;99.90;;;;;;5057190;28;20412;-82
2022/04/08 03:23:05;;;;;;;0.10;0.10;;;3.90;99.90;;;;;;5074016;28;20048;-82
2022/04/08 03:25:32;;;;;;;0.10;0.10;;;3.70;99.90;;;;;;5057265;28;20075;-82
2022/04/08 03:28:00;;;;;;;0.10;0.10;;;4.40;99.90;;;;;;5090081;28;20060;-82
2022/04/08 03:30:27;;;;;;;0.10;0.10;;;3.70;99.90;;;;;;5057161;28;20043;-82
2022/04/08 03:32:55;;;;;;;0.10;0.10;;;3.70;99.90;;;;;;5041381;28;20041;-82
2022/04/08 03:35:21;;;;;;;0.10;0.10;;;3.60;99.90;;;;;;5089869;28;20037;-82
2022/04/08 03:37:48;;;;;;;0.10;0.10;;;3.60;99.90;;;;;;5057545;28;20435;-81
2022/04/08 03:40:15;;;;;;;0.20;0.20;;;3.60;99.90;;;;;;5057239;28;20481;-81
2022/04/08 03:42:41;;;;;;;0.20;0.20;;;3.80;99.90;;;;;;5056908;28;20044;-81
2022/04/08 03:45:08;;;;;;;0.10;0.10;;;3.60;99.90;;;;;;5057280;28;20041;-81
2022/04/08 03:47:35;;;;;;;0.20;0.20;;;3.40;99.90;;;;;;5073438;28;20451;-82
2022/04/08 03:50:02;;;;;;;0.10;0.10;;;3.50;99.90;;;;;;5057252;28;20050;-83
2022/04/08 03:52:32;;;;;;;0.10;0.10;;;3.40;99.90;;;;;;5040473;28;20512;-82
2022/04/08 03:54:59;;;;;;;0.10;0.10;;;3.50;99.90;;;;;;5073418;28;20127;-82
2022/04/08 03:57:27;;;;;;;0.13;0.13;;;3.50;99.90;;;;;;5079398;28;20118;-82
2022/04/08 03:59:55;;;;;;;0.20;0.20;;;4.30;99.90;;;;;;5093235;28;20054;-82
2022/04/08 04:02:22;;;;;;;0.20;0.20;;;3.80;99.90;;;;;;5092822;28;20032;-82
2022/04/08 04:04:49;;;;;;;0.20;0.20;;;4.00;99.90;;;;;;5076563;28;20032;-83
2022/04/08 04:07:17;;;;;;;0.10;0.10;;;4.40;99.90;;;;;;5074985;28;20047;-82
2022/04/08 04:09:46;;;;;;;0.20;0.20;;;3.60;99.90;;;;;;5056680;28;20036;-82
2022/04/08 04:12:14;;;;;;;0.20;0.20;;;4.00;99.90;;;;;;5073009;28;20123;-82
2022/04/08 04:14:40;;;;;;;0.10;0.10;;;3.50;99.90;;;;;;5056389;28;20447;-81
2022/04/08 04:17:10;;;;;;;0.20;0.20;;;3.50;99.90;;;;;;5056723;28;20031;-82
2022/04/08 04:19:37;;;;;;;0.17;0.17;;;3.50;99.90;;;;;;5073323;28;20043;-81
2022/04/08 04:22:04;;;;;;;0.10;0.10;;;3.50;99.90;;;;;;5110225;28;20397;-82
2022/04/08 04:24:31;;;;;;;0.20;0.20;;;3.90;99.90;;;;;;5092854;28;20126;-81
2022/04/08 04:26:58;;;;;;;0.20;0.20;;;3.90;99.90;;;;;;5109361;28;20063;-82
2022/04/08 04:29:25;;;;;;;0.17;0.17;;;3.50;99.90;;;;;;5076336;28;20096;-82
2022/04/08 04:31:55;;;;;;;0.20;0.20;;;3.50;99.90;;;;;;5092958;28;20048;-82
2022/04/08 04:34:25;;;;;;;0.10;0.10;;;3.50;99.90;;;;;;5076683;28;20044;-82
2022/04/08 04:36:52;;;;;;;0.15;0.15;;;3.50;99.90;;;;;;5093041;28;20110;-82
2022/04/08 04:39:19;;;;;;;0.20;0.20;;;3.40;99.90;;;;;;5075989;28;20495;-82
2022/04/08 04:41:45;;;;;;;0.17;0.17;;;3.70;99.90;;;;;;5059476;28;20519;-82
2022/04/08 04:44:12;;;;;;;0.10;0.10;;;3.30;99.90;;;;;;5059685;28;20392;-83
2022/04/08 04:46:39;;;;;;;0.20;0.20;;;3.40;99.90;;;;;;5075604;28;20044;-83
2022/04/08 04:49:06;;;;;;;0.20;0.20;;;3.90;99.90;;;;;;5113409;28;20048;-83
2022/04/08 04:51:32;;;;;;;0.20;0.20;;;3.30;99.90;;;;;;5063388;28;20036;-82
2022/04/08 04:53:59;;;;;;;0.10;0.10;;;3.50;99.90;;;;;;5080195;28;20082;-81
2022/04/08 04:56:26;;;;;;;0.20;0.20;;;3.00;99.90;;;;;;5113140;28;20497;-82
2022/04/08 04:58:53;;;;;;;0.20;0.20;;;3.00;99.90;;;;;;5063655;28;20040;-83
2022/04/08 05:01:20;;;;;;;0.20;0.20;;;3.10;99.90;;;;;;5079655;28;20476;-82
2022/04/08 05:03:46;;;;;;;0.20;0.20;;;3.50;99.90;;;;;;5096364;28;20047;-83
2022/04/08 05:06:13;;;;;;;0.20;0.20;;;3.50;99.90;;;;;;5096480;28;20519;-81
2022/04/08 05:08:40;;;;;;;0.20;0.20;;;3.00;99.90;;;;;;5096468;28;20082;-82
2022/04/08 05:11:06;;;;;;;0.20;0.20;;;3.00;99.90;;;;;;5096359;28;20428;-82
2022/04/08 05:13:33;;;;;;;0.20;0.20;;;3.20;99.90;;;;;;5096844;28;20040;-81
2022/04/08 05:16:00;;;;;;;0.20;0.20;;;3.00;99.90;;;;;;5096663;28;20039;-81
2022/04/08 05:18:27;;;;;;;0.17;0.17;;;3.10;99.90;;;;;;5096215;28;20848;-82
2022/04/08 05:20:53;;;;;;;0.10;0.10;;;3.10;99.90;;;;;;5064460;28;20036;-81
2022/04/08 05:23:20;;;;;;;0.20;0.20;;;3.10;99.90;;;;;;5081256;28;20489;-82
2022/04/08 05:25:47;;;;;;;0.20;0.20;;;3.00;99.90;;;;;;5079246;28;20048;-81
2022/04/08 05:28:15;;;;;;;0.20;0.20;;;3.00;99.90;;;;;;5095904;28;20071;-81
2022/04/08 05:30:42;;;;;;;0.20;0.20;;;3.10;99.90;;;;;;5079601;28;20131;-82
2022/04/08 05:33:09;;;;;;;1.10;0.98;;;3.10;99.90;;;;;;5112786;28;20040;-81
2022/04/08 05:35:36;;;;;;;0.20;0.20;;;4.00;99.90;;;;;;5062705;28;20109;-82
2022/04/08 05:38:03;;;;;;;0.20;0.20;;;3.50;99.90;;;;;;5079676;28;20032;-81
2022/04/08 05:40:30;;;;;;;0.20;0.20;;;3.10;99.90;;;;;;5079503;28;20035;-81
2022/04/08 05:42:56;;;;;;;0.20;0.20;;;3.10;99.90;;;;;;5079096;28;20552;-82
2022/04/08 05:45:23;;;;;;;0.20;0.20;;;4.00;99.90;;;;;;5062806;28;20048;-82
2022/04/08 05:47:52;;;;;;;0.10;0.10;;;3.10;99.90;;;;;;5078903;28;20040;-82
2022/04/08 05:50:19;;;;;;;0.20;0.20;;;3.20;99.90;;;;;;5077409;28;20122;-82
2022/04/08 05:52:47;;;;;;;0.15;0.15;;;3.30;99.90;;;;;;5061375;28;20040;-82
2022/04/08 05:55:17;;;;;;;0.20;0.20;;;3.20;99.90;;;;;;5079778;28;20050;-82
2022/04/08 05:57:45;;;;;;;0.20;0.20;;;3.20;99.90;;;;;;5078032;28;20743;-82
2022/04/08 06:00:13;;;;;;;0.10;0.10;;;3.70;99.90;;;;;;5078792;28;20043;-82
2022/04/08 06:02:43;;;;;;;0.20;0.20;;;3.40;99.90;;;;;;5079081;28;20036;-82
2022/04/08 06:05:10;;;;;;;0.20;0.20;;;4.10;99.90;;;;;;5079737;28;20045;-82
2022/04/08 06:07:54;;;;;;;0.10;0.10;;;3.50;99.90;;;;;;5095259;28;20044;-83
2022/04/08 06:10:23;;;;;;;0.20;0.20;;;3.50;99.90;;;;;;5112075;28;20039;-82
2022/04/08 06:12:58;;;;;;;0.20;0.20;;;3.50;99.90;;;;;;5111695;28;20071;-82
2022/04/08 06:15:26;;;;;;;0.20;0.20;;;4.40;99.90;;;;;;5079829;28;20492;-82
2022/04/08 06:17:54;;;;;;;0.20;0.20;;;3.60;99.90;;;;;;5074749;28;20439;-82
2022/04/08 06:20:22;;;;;;;0.20;0.20;;;3.60;99.90;;;;;;5097646;28;20071;-83
2022/04/08 06:22:50;;;;;;;0.20;0.20;;;3.60;99.90;;;;;;5091541;28;20043;-82
2022/04/08 06:25:19;;;;;;;0.15;0.15;;;3.50;99.90;;;;;;5077154;28;20046;-82
2022/04/08 06:27:56;;;;;;;0.20;0.20;;;3.50;99.90;;;;;;5111146;28;20492;-81
2022/04/08 06:30:24;;;;;;;0.20;0.20;;;3.70;99.90;;;;;;5097802;28;20072;-82
2022/04/08 06:32:51;;;;;;;0.20;0.20;;;3.60;99.90;;;;;;5060450;28;20040;-82
2022/04/08 06:35:18;;;;;;;0.20;0.20;;;3.90;99.90;;;;;;5061878;28;20043;-82
2022/04/08 06:37:44;;;;;;;0.20;0.20;;;3.60;99.90;;;;;;5061680;28;20089;-82
2022/04/08 06:40:11;;;;;;;0.20;0.20;;;3.90;99.90;;;;;;5078707;28;20036;-83
2022/04/08 06:42:38;;;;;;;0.10;0.10;;;3.70;99.90;;;;;;5111667;28;20035;-82
2022/04/08 06:45:07;;;;;;;0.20;0.20;;;3.80;99.90;;;;;;5077801;28;20123;-82
2022/04/08 06:47:34;;;;;;;0.20;0.20;;;3.90;99.90;;;;;;5078223;28;20071;-81
2022/04/08 06:50:01;;;;;;;0.10;0.10;;;4.00;99.90;;;;;;5074929;28;20093;-83
2022/04/08 06:52:27;;;;;;;0.20;0.20;;;4.00;99.90;;;;;;5093418;28;20534;-81
2022/04/08 06:54:54;;;;;;;0.15;0.15;;;4.10;99.90;;;;;;5076827;28;20040;-81
2022/04/08 06:57:21;;;;;;;0.20;0.20;;;4.20;99.90;;;;;;5066039;28;20036;-84
2022/04/08 06:59:47;;;;;;;0.10;0.10;;;4.20;99.90;;;;;;5073525;28;20509;-84
2022/04/08 07:02:14;;;;;;;0.20;0.20;;;4.90;99.90;;;;;;5086695;28;20047;-83
2022/04/08 07:04:41;;;;;;;0.20;0.20;;;4.40;99.90;;;;;;5052488;28;20033;-83
2022/04/08 07:07:07;;;;;;;0.10;0.10;;;4.50;99.90;;;;;;5079650;28;20043;-84
2022/04/08 07:09:34;;;;;;;0.20;0.20;;;4.50;99.90;;;;;;5084763;28;20047;-84
2022/04/08 07:12:02;;;;;;;0.20;0.20;;;4.50;99.90;;;;;;5073416;28;20043;-84
2022/04/08 07:14:29;;;;;;;0.10;0.10;;;4.60;99.90;;;;;;5070773;28;20037;-83
2022/04/08 07:16:55;;;;;;;0.10;0.10;;;4.60;99.90;;;;;;5056862;28;20073;-84
2022/04/08 07:19:22;;;;;;;0.10;0.10;;;4.80;99.90;;;;;;5087547;28;20545;-84
2022/04/08 07:21:49;;;;;;;0.17;0.17;;;5.00;99.90;;;;;;5076884;28;20092;-85
2022/04/08 07:24:16;;;;;;;0.20;0.20;;;5.20;99.90;;;;;;5093923;28;20044;-84
2022/04/08 07:26:43;;;;;;;0.10;0.10;;;5.90;99.90;;;;;;5090645;28;20515;-84
2022/04/08 07:29:10;;;;;;;0.10;0.10;;;5.30;99.90;;;;;;5059745;28;20062;-83
2022/04/08 07:31:36;;;;;;;0.10;0.10;;;5.30;99.90;;;;;;5076925;28;20039;-84
2022/04/08 07:34:03;;;;;;;0.13;0.13;;;5.40;99.90;;;;;;5105794;28;20040;-84
2022/04/08 07:36:30;;;;;;;0.20;0.20;;;5.40;99.90;;;;;;5069217;28;20067;-84
2022/04/08 07:38:56;;;;;;;0.10;0.10;;;5.70;99.90;;;;;;5075981;28;20110;-83
2022/04/08 07:41:23;;;;;;;0.10;0.10;;;5.60;99.90;;;;;;5090144;28;20148;-84
2022/04/08 07:43:50;;;;;;;0.10;0.10;;;5.80;99.90;;;;;;5056689;28;20445;-84
2022/04/08 07:46:16;;;;;;;0.10;0.10;;;5.80;99.90;;;;;;5053524;28;20079;-84
2022/04/08 07:48:43;;;;;;;0.10;0.10;;;5.80;99.90;;;;;;5093228;28;20516;-83
2022/04/08 07:51:10;;;;;;;0.10;0.10;;;5.90;99.90;;;;;;5092850;28;20052;-84
2022/04/08 07:53:37;;;;;;;0.10;0.10;;;6.10;99.90;;;;;;5060072;28;20078;-85
2022/04/08 07:56:04;;;;;;;0.10;0.10;;;6.20;99.90;;;;;;5075343;28;20036;-85
2022/04/08 07:58:30;;;;;;;0.10;0.10;;;6.30;99.90;;;;;;5073411;28;20032;-84
2022/04/08 08:00:58;;;;;;;0.10;0.10;;;6.20;99.90;;;;;;5077904;28;20037;-85
2022/04/08 08:03:24;;;;;;;0.10;0.10;;;6.20;99.90;;;;;;5044895;28;20059;-85
2022/04/08 08:05:53;;;;;;;0.10;0.10;;;6.30;99.90;;;;;;5071616;28;20074;-83
2022/04/08 08:08:20;;;;;;;0.10;0.10;;;6.30;99.90;;;;;;5072545;28;20044;-84
2022/04/08 08:10:47;;;;;;;0.10;0.10;;;6.40;99.90;;;;;;5092905;28;20036;-84
2022/04/08 08:13:13;;;;;;;0.10;0.10;;;6.40;99.90;;;;;;5093128;28;20665;-84
2022/04/08 08:15:41;;;;;;;0.10;0.10;;;6.60;99.90;;;;;;5092471;28;20543;-84
2022/04/08 08:18:08;;;;;;;0.10;0.10;;;6.80;99.90;;;;;;5083091;28;20044;-84
2022/04/08 08:20:36;;;;;;;0.10;0.10;;;6.80;99.90;;;;;;5056472;28;20044;-85
2022/04/08 08:23:03;;;;;;;0.10;0.10;;;6.60;99.90;;;;;;5088749;28;20048;-84
2022/04/08 08:25:30;;;;;;;0.10;0.10;;;6.60;99.90;;;;;;5077624;28;20036;-84
2022/04/08 08:28:01;;;;;;;0.10;0.10;;;6.40;99.90;;;;;;5085940;28;20569;-83
2022/04/08 08:30:30;;;;;;;0.10;0.10;;;6.30;99.90;;;;;;5052323;28;20120;-81
2022/04/08 08:32:58;;;;;;;0.10;0.10;;;6.50;99.90;;;;;;5065514;28;20048;-81
2022/04/08 08:35:28;;;;;;;0.00;0.00;;;6.80;99.90;;;;;;5068392;28;20041;-82
2022/04/08 08:37:54;;;;;;;0.10;0.10;;;6.60;99.90;;;;;;5033509;28;20041;-81
2022/04/08 08:40:21;;;;;;;0.10;0.10;;;6.70;99.90;;;;;;5085046;28;20402;-82
2022/04/08 08:42:48;;;;;;;0.10;0.10;;;6.80;99.90;;;;;;5052634;28;20040;-82
2022/04/08 08:45:16;;;;;;;0.10;0.10;;;7.00;99.90;;;;;;5032110;28;20087;-82
2022/04/08 08:47:46;;;;;;;0.10;0.10;;;7.10;99.90;;;;;;5065093;28;20042;-83
2022/04/08 08:50:13;;;;;;;0.10;0.10;;;8.00;99.90;;;;;;5052277;28;20051;-82
2022/04/08 08:52:41;;;;;;;0.10;0.10;;;7.50;99.90;;;;;;5069965;28;20037;-82
2022/04/08 08:55:08;;;;;;;0.10;0.10;;;7.60;99.90;;;;;;5068328;28;20044;-82
2022/04/08 08:57:35;;;;;;;0.10;0.10;;;7.50;99.90;;;;;;5053390;28;20038;-82
2022/04/08 09:00:12;;;;;;;0.10;0.10;;;7.50;99.90;;;;;;5062404;28;20037;-81
2022/04/08 09:02:40;;;;;;;0.10;0.10;;;7.50;99.90;;;;;;5049869;28;20160;-81
2022/04/08 09:05:14;;;;;;;0.10;0.10;;;7.60;99.90;;;;;;5082468;28;20059;-81
2022/04/08 09:07:41;;;;;;;0.10;0.10;;;7.50;99.90;;;;;;5059337;28;20030;-81
2022/04/08 09:10:08;;;;;;;0.03;0.03;;;7.50;99.90;;;;;;5051167;28;20041;-81
2022/04/08 09:12:35;;;;;;;0.10;0.10;;;7.60;99.90;;;;;;5048945;28;20390;-81
2022/04/08 09:15:04;;;;;;;0.10;0.10;;;7.70;99.90;;;;;;5041424;28;20037;-82
2022/04/08 09:17:31;;;;;;;0.10;0.10;;;7.70;99.90;;;;;;5075867;28;20041;-81
2022/04/08 09:19:59;;;;;;;0.10;0.10;;;7.80;99.90;;;;;;5054329;28;20040;-81
2022/04/08 09:22:36;;;;;;;0.10;0.10;;;7.90;99.90;;;;;;5044552;28;20176;-82
2022/04/08 09:25:13;;;;;;;0.10;0.10;;;8.10;99.90;;;;;;5068540;28;20079;-82
2022/04/08 09:27:41;;;;;;;0.00;0.00;;;8.00;99.90;;;;;;5062682;28;20064;-83
2022/04/08 09:30:09;;;;;;;0.08;0.08;;;7.80;99.90;;;;;;5057437;28;20048;-82
2022/04/08 09:32:36;;;;;;;0.00;0.00;;;7.60;99.90;;;;;;5092040;28;20496;-82
2022/04/08 09:35:03;;;;;;;0.10;0.10;;;7.40;99.90;;;;;;5084371;28;20040;-83
2022/04/08 09:37:30;;;;;;;0.00;0.00;;;7.20;99.90;;;;;;5091452;28;20044;-82
2022/04/08 09:40:08;;;;;;;0.10;0.10;;;7.20;99.90;;;;;;5112178;28;20516;-82
2022/04/08 09:42:42;;;;;;;0.00;0.00;;;7.40;99.90;;;;;;5095173;28;20126;-82
2022/04/08 09:45:11;;;;;;;0.10;0.10;;;7.50;99.90;;;;;;5095207;28;20516;-82
2022/04/08 09:47:38;;;;;;;0.05;0.05;;;7.70;99.90;;;;;;5081645;28;20115;-82
2022/04/08 09:50:07;;;;;;;0.10;0.10;;;7.70;99.90;;;;;;5072856;28;20119;-82
2022/04/08 09:52:35;;;;;;;0.10;0.10;;;7.70;99.90;;;;;;5092281;28;20114;-84
2022/04/08 09:55:04;;;;;;;0.10;0.10;;;7.20;99.90;;;;;;5074823;28;20039;-83
2022/04/08 09:57:38;;;;;;;0.10;0.10;;;6.60;99.90;;;;;;5083641;28;20101;-83
2022/04/08 10:00:06;;;;;;;0.10;0.10;;;6.30;99.90;;;;;;5094991;28;20076;-81
2022/04/08 10:02:38;;;;;;;0.08;0.08;;;6.10;99.90;;;;;;5095185;28;20126;-83
2022/04/08 10:05:08;;;;;;;0.10;0.10;;;6.10;99.90;;;;;;5091322;28;20891;-83
2022/04/08 10:07:36;;;;;;;0.10;0.10;;;6.00;99.90;;;;;;5058599;28;20125;-84
2022/04/08 10:10:07;;;;;;;0.10;0.10;;;6.20;99.90;;;;;;5077598;28;20032;-83
2022/04/08 10:13:11;;;;;;;0.10;0.10;;;6.50;99.90;;;;;;5079429;28;20135;-84
2022/04/08 10:15:41;;;;;;;0.08;0.08;;;6.90;99.90;;;;;;5109965;28;20066;-84
2022/04/08 10:18:09;;;;;;;0.10;0.10;;;7.20;99.90;;;;;;5092605;28;20075;-82
2022/04/08 10:20:37;;;;;;;0.10;0.10;;;7.30;99.90;;;;;;5077680;28;20615;-81
2022/04/08 10:23:04;;;;;;;0.05;0.05;;;7.20;99.90;;;;;;5092653;28;20462;-81
2022/04/08 10:25:42;;;;;;;0.03;0.03;;;7.00;99.90;;;;;;5091332;28;20127;-81
2022/04/08 10:28:11;;;;;;;0.10;0.10;;;6.70;99.90;;;;;;5073863;28;20056;-81
2022/04/08 10:30:49;;;;;;;0.10;0.10;;;6.70;99.90;;;;;;5058378;28;20049;-81
2022/04/08 10:33:27;;;;;;;0.10;0.10;;;6.60;99.90;;;;;;5069203;28;20127;-81
2022/04/08 10:36:02;;;;;;;0.10;0.10;;;6.50;99.90;;;;;;5074328;28;20512;-81
2022/04/08 10:38:36;;;;;;;0.10;0.10;;;6.50;99.90;;;;;;5091052;28;20051;-81
2022/04/08 10:41:07;;;;;;;0.10;0.10;;;6.60;99.90;;;;;;5057843;28;20032;-81
2022/04/08 10:43:45;;;;;;;0.10;0.10;;;6.80;99.90;;;;;;5069971;28;20505;-81
2022/04/08 10:46:13;;;;;;;0.10;0.10;;;7.00;99.90;;;;;;5090471;28;20097;-81
2022/04/08 10:48:40;;;;;;;0.10;0.10;;;7.20;99.90;;;;;;5106702;28;20043;-81
2022/04/08 10:51:18;;;;;;;0.10;0.10;;;7.40;99.90;;;;;;5093924;28;20420;-83
2022/04/08 10:53:45;;;;;;;0.03;0.03;;;7.60;99.90;;;;;;5078214;28;20127;-83
2022/04/08 10:56:14;;;;;;;0.08;0.08;;;7.90;99.90;;;;;;5061122;28;20123;-83
2022/04/08 10:58:42;;;;;;;0.10;0.10;;;8.20;99.90;;;;;;5093636;28;20489;-83
2022/04/08 11:01:22;;;;;;;0.10;0.10;;;8.20;99.90;;;;;;5094148;28;20127;-83
2022/04/08 11:04:00;;;;;;;0.00;0.00;;;8.20;99.90;;;;;;5092791;28;20032;-83
2022/04/08 11:06:28;;;;;;;0.10;0.10;;;7.90;99.90;;;;;;5110771;28;20040;-83
2022/04/08 11:08:56;;;;;;;0.10;0.10;;;7.70;99.90;;;;;;5094121;28;20082;-83
2022/04/08 11:11:31;;;;;;;0.10;0.10;;;7.60;99.90;;;;;;5109863;28;20397;-83
2022/04/08 11:13:58;;;;;;;0.10;0.10;;;7.50;99.90;;;;;;5073619;28;20048;-83
2022/04/08 11:16:30;;;;;;;0.10;0.10;;;7.70;99.90;;;;;;5067012;28;20398;-83
2022/04/08 11:18:57;;;;;;;0.00;0.00;;;8.00;99.90;;;;;;5089966;28;20036;-83
2022/04/08 11:21:25;;;;;;;0.10;0.10;;;8.20;99.90;;;;;;5075027;28;20039;-83
2022/04/08 11:23:59;;;;;;;0.10;0.10;;;8.50;99.90;;;;;;5110042;28;20549;-85
2022/04/08 11:26:28;;;;;;;0.10;0.10;;;8.70;99.90;;;;;;5093768;28;20040;-83
2022/04/08 11:29:16;;;;;;;0.03;0.03;;;8.90;99.90;;;;;;5093439;28;20048;-78
2022/04/08 11:31:44;;;;;;;0.10;0.10;;;9.10;99.90;;;;;;5083251;28;20048;-81
2022/04/08 11:34:15;;;;;;;0.10;0.10;;;9.20;99.90;;;;;;5077494;28;20040;-81
2022/04/08 11:36:43;;;;;;;0.10;0.10;;;8.90;99.90;;;;;;5077348;28;20039;-82
2022/04/08 11:39:19;;;;;;;0.00;0.00;;;8.80;99.90;;;;;;5076706;28;20036;-81
2022/04/08 11:42:04;;;;;;;0.10;0.10;;;8.60;99.90;;;;;;5110038;28;20521;-83
2022/04/08 11:44:31;;;;;;;0.10;0.10;;;8.30;99.90;;;;;;5093336;28;20039;-81
2022/04/08 11:47:08;;;;;;;0.10;0.10;;;8.30;99.90;;;;;;5076808;28;20106;-81
2022/04/08 11:49:34;;;;;;;0.03;0.03;;;8.20;99.90;;;;;;5076170;28;20044;-83
2022/04/08 11:52:06;;;;;;;0.10;0.10;;;8.20;99.90;;;;;;5076912;28;20044;-81
2022/04/08 11:54:39;;;;;;;0.10;0.10;;;8.20;99.90;;;;;;5076529;28;20545;-83
2022/04/08 11:57:07;;;;;;;0.05;0.05;;;8.30;99.90;;;;;;5092949;28;20047;-83
2022/04/08 11:59:34;;;;;;;0.10;0.10;;;8.50;99.90;;;;;;5071940;28;20045;-83
2022/04/08 12:02:01;;;;;;;0.10;0.10;;;8.60;99.90;;;;;;5089539;28;20082;-83
2022/04/08 12:04:28;;;;;;;0.10;0.10;;;8.80;99.90;;;;;;5072671;28;20048;-83
2022/04/08 12:06:55;;;;;;;0.00;0.00;;;9.10;99.90;;;;;;5056176;28;20048;-83
2022/04/08 12:09:22;;;;;;;0.10;0.10;;;8.90;99.90;;;;;;5059328;28;20040;-81
2022/04/08 12:11:53;;;;;;;0.00;0.00;;;9.10;99.90;;;;;;5092790;28;20039;-81
2022/04/08 12:14:20;;;;;;;0.00;0.00;;;9.20;99.90;;;;;;5092416;28;20101;-82
2022/04/08 12:16:51;;;;;;;0.00;0.00;;;9.50;99.90;;;;;;5076916;28;20032;-81
2022/04/08 12:19:18;;;;;;;0.00;0.00;;;9.80;99.90;;;;;;5092514;28;20046;-83
2022/04/08 12:21:48;;;;;;;0.10;0.10;;;9.80;99.90;;;;;;5073027;28;20527;-82
2022/04/08 12:24:15;;;;;;;0.03;0.03;;;9.70;99.90;;;;;;5088898;28;20382;-83
2022/04/08 12:26:42;;;;;;;0.00;0.00;;;9.50;99.90;;;;;;5056196;28;20076;-81
2022/04/08 12:29:13;;;;;;;0.00;0.00;;;9.40;99.90;;;;;;5072493;28;20059;-81
2022/04/08 12:31:53;;;;;;;0.10;0.10;;;9.40;99.90;;;;;;5056050;28;20501;-83
2022/04/08 12:34:21;;;;;;;0.00;0.00;;;9.40;99.90;;;;;;5072276;28;20427;-83
2022/04/08 12:36:49;;;;;;;0.03;0.03;;;9.50;99.90;;;;;;5073116;28;20048;-83
2022/04/08 12:39:16;;;;;;;0.00;0.00;;;9.50;99.90;;;;;;5072668;28;20059;-81
2022/04/08 12:41:45;;;;;;;0.08;0.08;;;9.90;99.90;;;;;;5078073;28;20041;-82
2022/04/08 12:44:12;;;;;;;0.10;0.10;;;9.60;99.90;;;;;;5083306;28;20497;-82
2022/04/08 12:46:39;;;;;;;1.08;0.35;;;9.70;99.90;;;;;;5074348;28;20090;-84
2022/04/08 12:49:06;;;;;;;0.00;0.00;;;9.60;99.90;;;;;;5103656;28;20039;-84
2022/04/08 12:51:34;;;;;;;0.00;0.00;;;9.70;99.90;;;;;;5104492;28;20043;-84
2022/04/08 12:54:02;;;;;;;0.00;0.00;;;9.70;99.90;;;;;;5086905;28;20093;-84
2022/04/08 12:56:28;;;;;;;0.00;0.00;;;9.80;99.90;;;;;;5075711;28;20044;-82
2022/04/08 12:58:57;;;;;;;0.00;0.00;;;9.70;99.90;;;;;;5092844;28;20090;-82
2022/04/08 13:01:23;;;;;;;0.10;0.10;;;9.60;99.90;;;;;;5109044;28;20079;-84
2022/04/08 13:03:50;;;;;;;0.10;0.10;;;9.40;99.90;;;;;;5059394;28;20067;-85